createdAt,value
2023-04-10T00:00:31.350Z,101307.91
2023-04-10T00:03:39.132Z,101305.30
2023-04-10T00:06:45.093Z,101308.05
2023-04-10T00:09:52.010Z,101303.59
2023-04-10T00:12:58.726Z,101307.70
2023-04-10T00:16:05.354Z,101310.73
2023-04-10T00:19:12.828Z,101315.00
2023-04-10T00:22:18.894Z,101306.59
2023-04-10T00:25:24.594Z,101304.89
2023-04-10T00:28:30.842Z,101307.97
2023-04-10T00:31:37.842Z,101299.41
2023-04-10T00:34:43.364Z,101308.13
2023-04-10T00:37:50.367Z,101304.52
2023-04-10T00:40:57.688Z,101314.11
2023-04-10T00:44:03.978Z,101311.36
2023-04-10T00:47:10.030Z,101312.39
2023-04-10T00:50:16.190Z,101306.26
2023-04-10T00:53:22.729Z,101311.58
2023-04-10T00:56:29.148Z,101309.50
2023-04-10T00:59:34.243Z,101303.83
2023-04-10T01:02:40.674Z,101306.05
2023-04-10T01:05:52.246Z,101306.20
2023-04-10T01:09:32.724Z,101301.53
2023-04-10T01:13:07.366Z,101311.59
2023-04-10T01:16:29.555Z,101303.03
2023-04-10T01:19:48.554Z,101304.19
2023-04-10T01:23:24.392Z,101298.69
2023-04-10T01:26:30.742Z,101289.75
2023-04-10T01:29:37.018Z,101294.39
2023-04-10T01:32:42.985Z,101290.97
2023-04-10T01:35:48.317Z,101287.23
2023-04-10T01:38:56.868Z,101284.33
2023-04-10T01:42:06.564Z,101287.07
2023-04-10T01:45:13.058Z,101299.55
2023-04-10T01:48:23.244Z,101293.03
2023-04-10T01:51:22.868Z,101291.94
2023-04-10T01:54:10.069Z,101299.81
2023-04-10T01:57:04.133Z,101303.92
2023-04-10T02:00:00.295Z,101303.42
2023-04-10T02:03:10.035Z,101298.45
2023-04-10T02:07:05.714Z,101308.03
2023-04-10T02:10:20.438Z,101309.40
2023-04-10T02:13:26.507Z,101305.63
2023-04-10T02:16:32.337Z,101303.77
2023-04-10T02:19:40.191Z,101303.58
2023-04-10T02:22:46.109Z,101297.57
2023-04-10T02:25:52.513Z,101308.69
2023-04-10T02:28:59.424Z,101307.63
2023-04-10T02:32:07.621Z,101312.77
2023-04-10T02:35:13.004Z,101310.34
2023-04-10T02:38:19.784Z,101307.59
2023-04-10T02:41:25.961Z,101310.12
2023-04-10T02:44:34.398Z,101314.50
2023-04-10T02:47:40.110Z,101317.40
2023-04-10T02:50:45.982Z,101317.55
2023-04-10T02:53:52.253Z,101320.79
2023-04-10T02:57:02.433Z,101315.97
2023-04-10T03:00:09.976Z,101320.07
2023-04-10T03:03:22.056Z,101322.63
2023-04-10T03:06:30.507Z,101315.56
2023-04-10T03:09:37.487Z,101320.69
2023-04-10T03:12:43.562Z,101320.35
2023-04-10T03:15:49.014Z,101319.33
2023-04-10T03:18:55.686Z,101319.81
2023-04-10T03:22:02.156Z,101320.19
2023-04-10T03:25:07.934Z,101320.69
2023-04-10T03:28:14.131Z,101319.48
2023-04-10T03:31:21.205Z,101316.24
2023-04-10T03:34:29.499Z,101314.87
2023-04-10T03:37:35.678Z,101314.09
2023-04-10T03:40:45.217Z,101318.50
2023-04-10T03:43:55.475Z,101311.50
2023-04-10T03:47:01.860Z,101304.16
2023-04-10T03:50:08.468Z,101309.86
2023-04-10T03:53:16.484Z,101316.89
2023-04-10T03:56:23.624Z,101319.81
2023-04-10T03:59:37.791Z,101320.76
2023-04-10T04:02:40.997Z,101317.55
2023-04-10T04:05:49.771Z,101320.33
2023-04-10T04:09:06.012Z,101319.86
2023-04-10T04:12:15.366Z,101320.42
2023-04-10T04:15:36.676Z,101318.24
2023-04-10T04:19:00.742Z,101322.38
2023-04-10T04:22:11.209Z,101328.08
2023-04-10T04:25:32.675Z,101330.00
2023-04-10T04:28:46.647Z,101331.06
2023-04-10T04:31:55.352Z,101332.12
2023-04-10T04:35:01.422Z,101333.64
2023-04-10T04:38:03.112Z,101336.91
2023-04-10T04:40:55.758Z,101340.73
2023-04-10T04:44:03.125Z,101349.70
2023-04-10T04:46:58.219Z,101351.09
2023-04-10T04:50:05.620Z,101348.10
2023-04-10T04:53:17.892Z,101349.71
2023-04-10T04:56:35.362Z,101361.91
2023-04-10T04:59:59.427Z,101358.54
2023-04-10T05:03:16.163Z,101362.49
2023-04-10T05:06:39.667Z,101361.52
2023-04-10T05:09:49.156Z,101368.98
2023-04-10T05:13:09.076Z,101367.81
2023-04-10T05:16:21.328Z,101364.06
2023-04-10T05:19:32.786Z,101371.81
2023-04-10T05:22:57.968Z,101365.22
2023-04-10T05:26:12.353Z,101367.00
2023-04-10T05:29:26.968Z,101371.19
2023-04-10T05:32:43.887Z,101369.37
2023-04-10T05:36:07.493Z,101365.98
2023-04-10T05:39:32.053Z,101369.11
2023-04-10T05:42:44.935Z,101372.69
2023-04-10T05:46:05.392Z,101370.70
2023-04-10T05:49:24.485Z,101375.21
2023-04-10T05:52:33.026Z,101376.84
2023-04-10T05:55:58.101Z,101380.36
2023-04-10T05:59:16.577Z,101376.61
2023-04-10T06:02:31.994Z,101377.16
2023-04-10T06:05:38.587Z,101386.34
2023-04-10T06:08:45.225Z,101390.66
2023-04-10T06:11:51.185Z,101387.47
2023-04-10T06:14:56.580Z,101389.58
2023-04-10T06:18:05.553Z,101390.27
2023-04-10T06:21:13.850Z,101389.28
2023-04-10T06:24:24.735Z,101394.64
2023-04-10T06:27:32.683Z,101398.45
2023-04-10T06:30:42.179Z,101398.80
2023-04-10T06:33:47.872Z,101391.37
2023-04-10T06:36:55.150Z,101396.88
2023-04-10T06:40:00.806Z,101392.92
2023-04-10T06:43:06.706Z,101388.45
2023-04-10T06:46:13.403Z,101402.23
2023-04-10T06:49:19.117Z,101398.08
2023-04-10T06:52:23.968Z,101400.66
2023-04-10T06:55:29.466Z,101404.78
2023-04-10T06:58:35.884Z,101406.80
2023-04-10T07:01:42.894Z,101396.11
2023-04-10T07:04:48.740Z,101394.52
2023-04-10T07:07:57.092Z,101399.83
2023-04-10T07:11:03.297Z,101400.52
2023-04-10T07:14:09.566Z,101395.52
2023-04-10T07:17:16.145Z,101395.98
2023-04-10T07:20:23.889Z,101389.75
2023-04-10T07:23:30.544Z,101395.50
2023-04-10T07:26:37.112Z,101389.95
2023-04-10T07:29:43.444Z,101385.77
2023-04-10T07:32:50.263Z,101392.27
2023-04-10T07:35:56.739Z,101389.14
2023-04-10T07:39:03.005Z,101389.73
2023-04-10T07:42:09.554Z,101393.12
2023-04-10T07:45:15.171Z,101382.76
2023-04-10T07:48:20.991Z,101384.58
2023-04-10T07:51:27.714Z,101385.41
2023-04-10T07:54:33.686Z,101367.74
2023-04-10T07:57:41.693Z,101371.12
2023-04-10T08:00:49.644Z,101372.77
2023-04-10T08:03:57.667Z,101361.31
2023-04-10T08:07:05.753Z,101369.55
2023-04-10T08:10:12.805Z,101362.23
2023-04-10T08:13:20.136Z,101366.13
2023-04-10T08:16:27.206Z,101353.79
2023-04-10T08:19:33.672Z,101356.80
2023-04-10T08:22:39.847Z,101356.13
2023-04-10T08:25:47.513Z,101350.53
2023-04-10T08:28:53.807Z,101348.72
2023-04-10T08:32:01.689Z,101343.02
2023-04-10T08:35:07.090Z,101345.98
2023-04-10T08:38:14.660Z,101348.19
2023-04-10T08:41:21.209Z,101342.67
2023-04-10T08:44:28.797Z,101335.45
2023-04-10T08:47:35.711Z,101332.80
2023-04-10T08:50:42.158Z,101347.23
2023-04-10T08:53:48.014Z,101336.91
2023-04-10T08:56:55.166Z,101329.75
2023-04-10T09:00:04.275Z,101333.83
2023-04-10T09:03:12.237Z,101336.56
2023-04-10T09:06:20.070Z,101325.61
2023-04-10T09:09:29.343Z,101329.41
2023-04-10T09:12:36.465Z,101316.08
2023-04-10T09:15:44.019Z,101315.33
2023-04-10T09:19:06.396Z,101320.23
2023-04-10T09:22:12.034Z,101317.27
2023-04-10T09:25:18.632Z,101316.03
2023-04-10T09:28:24.971Z,101318.61
2023-04-10T09:31:45.596Z,101312.39
2023-04-10T09:34:58.770Z,101316.64
2023-04-10T09:38:04.980Z,101312.14
2023-04-10T09:41:21.449Z,101297.73
2023-04-10T09:44:26.476Z,101295.18
2023-04-10T09:47:34.711Z,101297.95
2023-04-10T09:50:51.148Z,101289.74
2023-04-10T09:54:04.445Z,101293.91
2023-04-10T09:57:10.302Z,101287.94
2023-04-10T10:00:21.139Z,101289.22
2023-04-10T10:03:34.425Z,101287.01
2023-04-10T10:06:40.235Z,101279.80
2023-04-10T10:09:46.867Z,101281.42
2023-04-10T10:13:16.730Z,101278.23
2023-04-10T10:16:36.229Z,101279.10
2023-04-10T10:20:17.302Z,101265.52
2023-04-10T10:23:25.605Z,101268.45
2023-04-10T10:26:31.842Z,101271.96
2023-04-10T10:29:37.673Z,101272.06
2023-04-10T10:32:44.245Z,101262.63
2023-04-10T10:35:52.348Z,101260.13
2023-04-10T10:39:29.541Z,101247.64
2023-04-10T10:43:11.360Z,101251.91
2023-04-10T10:46:26.456Z,101254.41
2023-04-10T10:49:32.860Z,101246.87
2023-04-10T10:53:04.198Z,101236.37
2023-04-10T10:56:10.131Z,101242.90
2023-04-10T10:59:16.061Z,101236.98
2023-04-10T11:02:32.262Z,101229.91
2023-04-10T11:06:02.921Z,101231.83
2023-04-10T11:09:10.757Z,101231.56
2023-04-10T11:12:18.646Z,101224.66
2023-04-10T11:15:25.422Z,101226.84
2023-04-10T11:18:31.571Z,101223.98
2023-04-10T11:21:38.755Z,101224.06
2023-04-10T11:24:46.745Z,101215.91
2023-04-10T11:27:59.860Z,101225.12
2023-04-10T11:31:06.059Z,101224.17
2023-04-10T11:34:21.624Z,101215.05
2023-04-10T11:37:30.489Z,101207.94
2023-04-10T11:40:36.150Z,101210.20
2023-04-10T11:43:42.008Z,101204.14
2023-04-10T11:46:57.922Z,101190.52
2023-04-10T11:50:08.028Z,101198.89
2023-04-10T11:53:14.943Z,101192.72
2023-04-10T11:56:19.781Z,101187.42
2023-04-10T11:59:26.214Z,101185.77
2023-04-10T12:02:33.072Z,101184.02
2023-04-10T12:05:40.280Z,101174.46
2023-04-10T12:08:49.793Z,101178.37
2023-04-10T12:12:06.958Z,101173.06
2023-04-10T12:15:14.055Z,101163.28
2023-04-10T12:18:20.618Z,101161.04
2023-04-10T12:21:28.452Z,101166.52
2023-04-10T12:25:06.224Z,101157.75
2023-04-10T12:28:12.576Z,101156.97
2023-04-10T12:31:18.716Z,101158.06
2023-04-10T12:34:24.266Z,101149.34
2023-04-10T12:37:30.109Z,101140.14
2023-04-10T12:40:35.239Z,101136.33
2023-04-10T12:43:49.358Z,101137.39
2023-04-10T12:46:38.835Z,101137.84
2023-04-10T12:49:32.617Z,101131.77
2023-04-10T12:52:40.072Z,101133.38
2023-04-10T12:55:44.967Z,101129.72
2023-04-10T12:58:51.212Z,101121.47
2023-04-10T13:01:57.960Z,101116.93
2023-04-10T13:05:06.904Z,101118.71
2023-04-10T13:08:14.977Z,101111.27
2023-04-10T13:11:21.099Z,101112.96
2023-04-10T13:14:27.875Z,101109.50
2023-04-10T13:17:36.128Z,101112.96
2023-04-10T13:20:43.383Z,101107.03
2023-04-10T13:23:50.866Z,101106.09
2023-04-10T13:26:56.610Z,101095.17
2023-04-10T13:30:03.593Z,101095.11
2023-04-10T13:33:10.405Z,101090.30
2023-04-10T13:36:16.217Z,101083.92
2023-04-10T13:39:24.930Z,101074.07
2023-04-10T13:42:31.555Z,101083.25
2023-04-10T13:45:36.948Z,101082.09
2023-04-10T13:48:44.869Z,101073.30
2023-04-10T13:51:51.215Z,101077.73
2023-04-10T13:54:59.816Z,101070.81
2023-04-10T13:58:05.943Z,101066.78
2023-04-10T14:01:12.976Z,101070.58
2023-04-10T14:04:19.290Z,101069.96
2023-04-10T14:07:25.884Z,101062.55
2023-04-10T14:10:31.972Z,101059.00
2023-04-10T14:13:37.866Z,101059.41
2023-04-10T14:16:43.820Z,101058.94
2023-04-10T14:19:51.005Z,101059.86
2023-04-10T14:22:57.284Z,101050.45
2023-04-10T14:26:04.455Z,101047.14
2023-04-10T14:29:09.675Z,101052.67
2023-04-10T14:32:15.739Z,101051.34
2023-04-10T14:35:24.926Z,101047.72
2023-04-10T14:38:30.412Z,101041.08
2023-04-10T14:41:36.049Z,101045.98
2023-04-10T14:44:42.850Z,101044.47
2023-04-10T14:47:48.583Z,101041.65
2023-04-10T14:50:56.538Z,101040.61
2023-04-10T14:54:02.869Z,101036.63
2023-04-10T14:57:08.566Z,101037.41
2023-04-10T15:00:16.136Z,101043.95
2023-04-10T15:03:24.535Z,101029.45
2023-04-10T15:06:30.426Z,101030.84
2023-04-10T15:09:37.224Z,101029.20
2023-04-10T15:12:43.996Z,101031.70
2023-04-10T15:15:49.266Z,101024.19
2023-04-10T15:18:57.957Z,101020.47
2023-04-10T15:22:04.426Z,101027.38
2023-04-10T15:25:10.481Z,101022.75
2023-04-10T15:28:17.014Z,101024.22
2023-04-10T15:31:24.468Z,101029.73
2023-04-10T15:34:31.417Z,101035.66
2023-04-10T15:37:37.191Z,101035.40
2023-04-10T15:40:45.680Z,101027.86
2023-04-10T15:43:54.070Z,101028.98
2023-04-10T15:47:00.293Z,101026.67
2023-04-10T15:50:07.279Z,101026.98
2023-04-10T15:53:14.654Z,101028.72
2023-04-10T15:56:22.692Z,101026.83
2023-04-10T15:59:28.868Z,101032.38
2023-04-10T16:02:34.216Z,101020.53
2023-04-10T16:05:41.578Z,101027.81
2023-04-10T16:08:49.603Z,101029.17
2023-04-10T16:11:55.646Z,101025.75
2023-04-10T16:15:03.916Z,101024.68
2023-04-10T16:18:10.285Z,101024.16
2023-04-10T16:21:17.642Z,101022.38
2023-04-10T16:24:23.503Z,101025.62
2023-04-10T16:27:30.077Z,101030.05
2023-04-10T16:30:35.405Z,101025.26
2023-04-10T16:33:43.404Z,101023.84
2023-04-10T16:36:48.910Z,101028.12
2023-04-10T16:39:54.501Z,101031.34
2023-04-10T16:43:00.031Z,101029.87
2023-04-10T16:46:12.254Z,101030.28
2023-04-10T16:49:18.112Z,101034.12
2023-04-10T16:52:24.592Z,101041.18
2023-04-10T16:55:31.278Z,101040.15
2023-04-10T16:58:36.323Z,101036.00
2023-04-10T17:01:44.436Z,101042.00
2023-04-10T17:04:51.253Z,101038.08
2023-04-10T17:07:57.183Z,101048.19
2023-04-10T17:11:02.822Z,101049.36
2023-04-10T17:14:10.339Z,101050.32
2023-04-10T17:17:16.742Z,101049.20
2023-04-10T17:20:23.689Z,101051.69
2023-04-10T17:23:29.390Z,101049.86
2023-04-10T17:26:38.210Z,101054.75
2023-04-10T17:29:45.588Z,101059.10
2023-04-10T17:32:52.919Z,101061.39
2023-04-10T17:35:58.916Z,101060.22
2023-04-10T17:39:05.360Z,101059.92
2023-04-10T17:42:10.349Z,101055.14
2023-04-10T17:45:16.211Z,101056.53
2023-04-10T17:48:22.847Z,101061.73
2023-04-10T17:51:30.824Z,101065.18
2023-04-10T17:54:37.259Z,101064.83
2023-04-10T17:57:44.698Z,101066.22
2023-04-10T18:00:55.180Z,101067.59
2023-04-10T18:04:01.327Z,101062.61
2023-04-10T18:07:08.473Z,101059.54
2023-04-10T18:10:15.653Z,101061.78
2023-04-10T18:13:15.562Z,101057.99
2023-04-10T18:16:28.059Z,101058.53
2023-04-10T18:19:37.685Z,101061.09
2023-04-10T18:22:45.693Z,101058.67
2023-04-10T18:25:51.731Z,101061.23
2023-04-10T18:28:57.127Z,101060.21
2023-04-10T18:32:03.912Z,101061.91
2023-04-10T18:35:11.051Z,101058.28
2023-04-10T18:38:18.137Z,101059.99
2023-04-10T18:41:23.937Z,101062.38
2023-04-10T18:44:33.449Z,101057.20
2023-04-10T18:47:40.500Z,101057.87
2023-04-10T18:50:51.843Z,101063.86
2023-04-10T18:53:57.941Z,101060.72
2023-04-10T18:57:07.114Z,101066.53
2023-04-10T19:00:15.173Z,101058.81
2023-04-10T19:03:23.264Z,101059.81
2023-04-10T19:06:34.343Z,101059.95
2023-04-10T19:09:42.379Z,101063.55
2023-04-10T19:12:50.262Z,101053.92
2023-04-10T19:15:57.856Z,101059.91
2023-04-10T19:19:04.312Z,101062.60
2023-04-10T19:22:10.445Z,101067.21
2023-04-10T19:25:16.112Z,101057.41
2023-04-10T19:28:22.425Z,101056.86
2023-04-10T19:31:28.534Z,101061.46
2023-04-10T19:34:34.540Z,101055.44
2023-04-10T19:37:40.639Z,101053.36
2023-04-10T19:40:47.083Z,101047.00
2023-04-10T19:43:47.168Z,101042.02
2023-04-10T19:46:53.999Z,101041.31
2023-04-10T19:50:01.534Z,101047.11
2023-04-10T19:53:08.571Z,101050.39
2023-04-10T19:56:15.091Z,101044.70
2023-04-10T19:59:21.655Z,101032.91
2023-04-10T20:02:31.423Z,101042.29
2023-04-10T20:05:37.236Z,101036.09
2023-04-10T20:08:44.381Z,101032.15
2023-04-10T20:11:50.612Z,101028.20
2023-04-10T20:14:57.375Z,101029.73
2023-04-10T20:18:05.139Z,101020.97
2023-04-10T20:21:12.595Z,101020.59
2023-04-10T20:24:19.222Z,101013.02
2023-04-10T20:27:23.948Z,101013.34
2023-04-10T20:30:30.682Z,101016.41
2023-04-10T20:33:37.636Z,101017.73
2023-04-10T20:36:43.774Z,101014.27
2023-04-10T20:39:49.568Z,101017.98
2023-04-10T20:42:59.120Z,101013.48
2023-04-10T20:46:06.046Z,101013.79
2023-04-10T20:49:12.161Z,101014.42
2023-04-10T20:52:18.732Z,101012.63
2023-04-10T20:55:26.507Z,101007.82
2023-04-10T20:58:33.434Z,101010.00
2023-04-10T21:01:40.076Z,101007.74
2023-04-10T21:04:47.702Z,101003.61
2023-04-10T21:07:54.636Z,101004.59
2023-04-10T21:11:00.997Z,101007.11
2023-04-10T21:14:07.071Z,101011.52
2023-04-10T21:17:12.312Z,101005.66
2023-04-10T21:20:17.338Z,100997.92
2023-04-10T21:23:24.574Z,100994.67
2023-04-10T21:26:30.434Z,100989.14
2023-04-10T21:29:37.530Z,100989.45
2023-04-10T21:32:43.507Z,100980.70
2023-04-10T21:35:48.731Z,100981.02
2023-04-10T21:38:55.972Z,100983.03
2023-04-10T21:42:03.165Z,100977.04
2023-04-10T21:45:10.227Z,100976.11
2023-04-10T21:48:16.579Z,100971.98
2023-04-10T21:51:16.940Z,100970.93
2023-04-10T21:54:03.562Z,100966.11
2023-04-10T21:56:56.062Z,100962.82
2023-04-10T21:59:42.272Z,100953.38
2023-04-10T22:02:35.128Z,100959.16
2023-04-10T22:05:41.512Z,100959.31
2023-04-10T22:08:49.881Z,100958.11
2023-04-10T22:11:55.801Z,100954.66
2023-04-10T22:15:02.190Z,100953.94
2023-04-10T22:18:12.394Z,100950.34
2023-04-10T22:21:20.019Z,100963.50
2023-04-10T22:24:26.468Z,100949.13
2023-04-10T22:27:32.322Z,100946.21
2023-04-10T22:30:40.820Z,100941.92
2023-04-10T22:33:49.615Z,100939.69
2023-04-10T22:36:54.464Z,100938.48
2023-04-10T22:40:02.643Z,100939.13
2023-04-10T22:43:09.048Z,100936.89
2023-04-10T22:46:14.490Z,100936.05
2023-04-10T22:49:23.300Z,100934.63
2023-04-10T22:52:29.510Z,100930.69
2023-04-10T22:55:35.669Z,100928.11
2023-04-10T22:58:41.709Z,100921.93
2023-04-10T23:01:49.646Z,100918.14
2023-04-10T23:04:55.557Z,100915.23
2023-04-10T23:08:01.162Z,100915.37
2023-04-10T23:11:10.134Z,100912.43
2023-04-10T23:14:16.507Z,100905.91
2023-04-10T23:17:23.293Z,100905.38
2023-04-10T23:20:28.591Z,100901.56
2023-04-10T23:23:34.644Z,100900.50
2023-04-10T23:26:40.134Z,100889.33
2023-04-10T23:29:46.399Z,100895.96
2023-04-10T23:32:52.838Z,100898.66
2023-04-10T23:35:59.579Z,100895.51
2023-04-10T23:39:05.406Z,100890.51
2023-04-10T23:42:11.726Z,100894.34
2023-04-10T23:45:17.535Z,100889.45
2023-04-10T23:48:24.313Z,100894.52
2023-04-10T23:51:29.986Z,100895.81
2023-04-10T23:54:35.436Z,100899.86
2023-04-10T23:57:40.726Z,100895.55
